sensor_id;sensor_type;location;lat;lon;timestamp;pressure;altitude;pressure_sealevel;temperature;humidity
65157;BME280;52745;49.794;18.258;2023-04-25T00:02:09;-16206.06;;;10.07;100.00
65157;BME280;52745;49.794;18.258;2023-04-25T00:04:36;-16205.53;;;10.05;100.00
65157;BME280;52745;49.794;18.258;2023-04-25T00:07:04;-16204.28;;;10.00;100.00
65157;BME280;52745;49.794;18.258;2023-04-25T00:09:31;-16204.03;;;9.99;100.00
65157;BME280;52745;49.794;18.258;2023-04-25T00:11:58;-16201.69;;;9.90;100.00
65157;BME280;52745;49.794;18.258;2023-04-25T00:14:25;-16201.56;;;9.90;100.00
65157;BME280;52745;49.794;18.258;2023-04-25T00:16:51;-16200.47;;;9.86;100.00
65157;BME280;52745;49.794;18.258;2023-04-25T00:19:18;-16200.59;;;9.86;100.00
65157;BME280;52745;49.794;18.258;2023-04-25T00:21:45;-16202.53;;;9.93;100.00
65157;BME280;52745;49.794;18.258;2023-04-25T00:24:12;-16200.19;;;9.85;100.00
65157;BME280;52745;49.794;18.258;2023-04-25T00:26:39;-16199.78;;;9.83;100.00
65157;BME280;52745;49.794;18.258;2023-04-25T00:29:06;-16198.56;;;9.79;100.00
65157;BME280;52745;49.794;18.258;2023-04-25T00:31:32;-16198.97;;;9.80;100.00
65157;BME280;52745;49.794;18.258;2023-04-25T00:33:59;-16199.66;;;9.83;100.00
65157;BME280;52745;49.794;18.258;2023-04-25T00:36:25;-16198.28;;;9.78;100.00
65157;BME280;52745;49.794;18.258;2023-04-25T00:38:53;-16197.59;;;9.75;100.00
65157;BME280;52745;49.794;18.258;2023-04-25T00:41:21;-16197.75;;;9.76;100.00
65157;BME280;52745;49.794;18.258;2023-04-25T00:43:49;-16197.88;;;9.76;100.00
65157;BME280;52745;49.794;18.258;2023-04-25T00:46:16;-16198.44;;;9.78;100.00
65157;BME280;52745;49.794;18.258;2023-04-25T00:48:43;-16199.94;;;9.84;100.00
65157;BME280;52745;49.794;18.258;2023-04-25T00:51:13;-16198.03;;;9.77;100.00
65157;BME280;52745;49.794;18.258;2023-04-25T00:53:42;-16198.03;;;9.77;100.00
65157;BME280;52745;49.794;18.258;2023-04-25T00:56:09;-16198.28;;;9.78;100.00
65157;BME280;52745;49.794;18.258;2023-04-25T00:58:37;-16199.09;;;9.81;100.00
65157;BME280;52745;49.794;18.258;2023-04-25T01:01:05;-16197.06;;;9.73;100.00
65157;BME280;52745;49.794;18.258;2023-04-25T01:03:33;-16195.56;;;9.67;100.00
65157;BME280;52745;49.794;18.258;2023-04-25T01:06:02;-16192.56;;;9.56;100.00
65157;BME280;52745;49.794;18.258;2023-04-25T01:08:29;-16192.00;;;9.54;100.00
65157;BME280;52745;49.794;18.258;2023-04-25T01:10:56;-16191.75;;;9.53;100.00
65157;BME280;52745;49.794;18.258;2023-04-25T01:13:23;-16191.06;;;9.50;100.00
65157;BME280;52745;49.794;18.258;2023-04-25T01:15:50;-16189.97;;;9.46;100.00
65157;BME280;52745;49.794;18.258;2023-04-25T01:18:18;-16186.69;;;9.34;100.00
65157;BME280;52745;49.794;18.258;2023-04-25T01:20:52;-16189.28;;;9.44;100.00
65157;BME280;52745;49.794;18.258;2023-04-25T01:23:21;-16187.94;;;9.39;100.00
65157;BME280;52745;49.794;18.258;2023-04-25T01:25:49;-16186.69;;;9.34;100.00
65157;BME280;52745;49.794;18.258;2023-04-25T01:28:16;-16185.75;;;9.30;100.00
65157;BME280;52745;49.794;18.258;2023-04-25T01:30:43;-16184.09;;;9.24;100.00
65157;BME280;52745;49.794;18.258;2023-04-25T01:33:11;-16181.09;;;9.13;100.00
65157;BME280;52745;49.794;18.258;2023-04-25T01:35:40;-16178.38;;;9.03;100.00
65157;BME280;52745;49.794;18.258;2023-04-25T01:38:06;-16176.19;;;8.95;100.00
65157;BME280;52745;49.794;18.258;2023-04-25T01:40:34;-16173.19;;;8.83;100.00
65157;BME280;52745;49.794;18.258;2023-04-25T01:43:01;-16171.69;;;8.78;100.00
65157;BME280;52745;49.794;18.258;2023-04-25T01:45:27;-16171.81;;;8.78;100.00
65157;BME280;52745;49.794;18.258;2023-04-25T01:47:54;-16169.38;;;8.69;100.00
65157;BME280;52745;49.794;18.258;2023-04-25T01:50:21;-16168.28;;;8.65;100.00
65157;BME280;52745;49.794;18.258;2023-04-25T01:52:49;-16167.59;;;8.62;100.00
65157;BME280;52745;49.794;18.258;2023-04-25T01:55:16;-16164.19;;;8.49;100.00
65157;BME280;52745;49.794;18.258;2023-04-25T01:57:52;-16164.19;;;8.49;100.00
65157;BME280;52745;49.794;18.258;2023-04-25T02:00:24;-16165.41;;;8.54;100.00
65157;BME280;52745;49.794;18.258;2023-04-25T02:02:51;-16164.59;;;8.51;100.00
65157;BME280;52745;49.794;18.258;2023-04-25T02:05:25;-16162.81;;;8.44;100.00
65157;BME280;52745;49.794;18.258;2023-04-25T02:07:52;-16160.91;;;8.37;100.00
65157;BME280;52745;49.794;18.258;2023-04-25T02:10:19;-16157.63;;;8.25;100.00
65157;BME280;52745;49.794;18.258;2023-04-25T02:12:57;-16155.44;;;8.17;100.00
65157;BME280;52745;49.794;18.258;2023-04-25T02:15:36;-16153.81;;;8.11;100.00
65157;BME280;52745;49.794;18.258;2023-04-25T02:18:14;-16152.56;;;8.06;100.00
65157;BME280;52745;49.794;18.258;2023-04-25T02:20:43;-16153.81;;;8.11;100.00
65157;BME280;52745;49.794;18.258;2023-04-25T02:23:10;-16151.34;;;8.01;100.00
65157;BME280;52745;49.794;18.258;2023-04-25T02:25:37;-16151.88;;;8.03;100.00
65157;BME280;52745;49.794;18.258;2023-04-25T02:28:04;-16149.44;;;7.94;100.00
65157;BME280;52745;49.794;18.258;2023-04-25T02:30:31;-16150.53;;;7.98;100.00
65157;BME280;52745;49.794;18.258;2023-04-25T02:32:57;-16151.47;;;8.02;100.00
65157;BME280;52745;49.794;18.258;2023-04-25T02:35:24;-16150.25;;;7.97;100.00
65157;BME280;52745;49.794;18.258;2023-04-25T02:37:54;-16148.63;;;7.91;100.00
65157;BME280;52745;49.794;18.258;2023-04-25T02:40:20;-16147.78;;;7.88;100.00
65157;BME280;52745;49.794;18.258;2023-04-25T02:42:47;-16147.38;;;7.86;100.00
65157;BME280;52745;49.794;18.258;2023-04-25T02:45:14;-16147.38;;;7.86;100.00
65157;BME280;52745;49.794;18.258;2023-04-25T02:47:41;-16148.19;;;7.90;100.00
65157;BME280;52745;49.794;18.258;2023-04-25T02:50:08;-16147.66;;;7.87;100.00
65157;BME280;52745;49.794;18.258;2023-04-25T02:52:35;-16146.44;;;7.83;100.00
65157;BME280;52745;49.794;18.258;2023-04-25T02:55:09;-16143.56;;;7.72;100.00
65157;BME280;52745;49.794;18.258;2023-04-25T02:57:38;-16142.88;;;7.70;100.00
65157;BME280;52745;49.794;18.258;2023-04-25T03:00:05;-16143.16;;;7.71;100.00
65157;BME280;52745;49.794;18.258;2023-04-25T03:02:32;-16143.28;;;7.71;100.00
65157;BME280;52745;49.794;18.258;2023-04-25T03:04:59;-16144.09;;;7.74;100.00
65157;BME280;52745;49.794;18.258;2023-04-25T03:07:26;-16143.44;;;7.72;100.00
65157;BME280;52745;49.794;18.258;2023-04-25T03:09:53;-16144.38;;;7.75;100.00
65157;BME280;52745;49.794;18.258;2023-04-25T03:12:20;-16144.09;;;7.74;100.00
65157;BME280;52745;49.794;18.258;2023-04-25T03:14:46;-16144.38;;;7.75;100.00
65157;BME280;52745;49.794;18.258;2023-04-25T03:17:13;-16144.53;;;7.76;100.00
65157;BME280;52745;49.794;18.258;2023-04-25T03:19:39;-16145.47;;;7.79;100.00
65157;BME280;52745;49.794;18.258;2023-04-25T03:22:06;-16146.16;;;7.82;100.00
65157;BME280;52745;49.794;18.258;2023-04-25T03:24:33;-16144.53;;;7.76;100.00
65157;BME280;52745;49.794;18.258;2023-04-25T03:27:00;-16145.06;;;7.78;100.00
65157;BME280;52745;49.794;18.258;2023-04-25T03:29:26;-16144.94;;;7.77;100.00
65157;BME280;52745;49.794;18.258;2023-04-25T03:31:56;-16143.56;;;7.72;100.00
65157;BME280;52745;49.794;18.258;2023-04-25T03:34:22;-16146.28;;;7.82;100.00
65157;BME280;52745;49.794;18.258;2023-04-25T03:36:50;-16147.53;;;7.87;100.00
65157;BME280;52745;49.794;18.258;2023-04-25T03:39:16;-16146.97;;;7.85;100.00
65157;BME280;52745;49.794;18.258;2023-04-25T03:41:48;-16147.53;;;7.87;100.00
65157;BME280;52745;49.794;18.258;2023-04-25T03:44:15;-16146.69;;;7.84;100.00
65157;BME280;52745;49.794;18.258;2023-04-25T03:46:41;-16147.78;;;7.88;100.00
65157;BME280;52745;49.794;18.258;2023-04-25T03:49:08;-16149.28;;;7.94;100.00
65157;BME280;52745;49.794;18.258;2023-04-25T03:51:53;-16149.03;;;7.93;100.00
65157;BME280;52745;49.794;18.258;2023-04-25T03:54:20;-16148.06;;;7.89;100.00
65157;BME280;52745;49.794;18.258;2023-04-25T03:56:55;-16150.53;;;7.98;100.00
65157;BME280;52745;49.794;18.258;2023-04-25T03:59:23;-16151.63;;;8.02;100.00
65157;BME280;52745;49.794;18.258;2023-04-25T04:01:51;-16155.56;;;8.17;100.00
65157;BME280;52745;49.794;18.258;2023-04-25T04:04:18;-16158.44;;;8.28;100.00
65157;BME280;52745;49.794;18.258;2023-04-25T04:06:45;-16159.69;;;8.33;100.00
65157;BME280;52745;49.794;18.258;2023-04-25T04:09:19;-16161.84;;;8.41;100.00
65157;BME280;52745;49.794;18.258;2023-04-25T04:11:47;-16163.50;;;8.47;100.00
65157;BME280;52745;49.794;18.258;2023-04-25T04:14:13;-16164.19;;;8.49;100.00
65157;BME280;52745;49.794;18.258;2023-04-25T04:16:44;-16162.81;;;8.44;100.00
65157;BME280;52745;49.794;18.258;2023-04-25T04:19:11;-16163.09;;;8.45;100.00
65157;BME280;52745;49.794;18.258;2023-04-25T04:21:41;-16163.38;;;8.46;100.00
65157;BME280;52745;49.794;18.258;2023-04-25T04:24:09;-16164.47;;;8.51;99.04
65157;BME280;52745;49.794;18.258;2023-04-25T04:26:51;-16166.22;;;8.57;99.17
65157;BME280;52745;49.794;18.258;2023-04-25T04:29:36;-16168.56;;;8.66;99.75
65157;BME280;52745;49.794;18.258;2023-04-25T04:32:16;-16169.91;;;8.71;98.33
65157;BME280;52745;49.794;18.258;2023-04-25T04:34:44;-16170.59;;;8.74;97.95
65157;BME280;52745;49.794;18.258;2023-04-25T04:37:14;-16170.47;;;8.73;99.36
65157;BME280;52745;49.794;18.258;2023-04-25T04:39:42;-16171.97;;;8.79;98.91
65157;BME280;52745;49.794;18.258;2023-04-25T04:42:24;-16173.72;;;8.85;96.32
65157;BME280;52745;49.794;18.258;2023-04-25T04:45:20;-16174.16;;;8.87;96.32
65157;BME280;52745;49.794;18.258;2023-04-25T04:48:08;-16172.91;;;8.82;94.74
65157;BME280;52745;49.794;18.258;2023-04-25T04:50:57;-16177.56;;;9.00;94.42
65157;BME280;52745;49.794;18.258;2023-04-25T04:53:42;-16178.38;;;9.03;95.36
65157;BME280;52745;49.794;18.258;2023-04-25T04:56:17;-16176.06;;;8.94;93.81
65157;BME280;52745;49.794;18.258;2023-04-25T04:59:08;-16176.88;;;8.97;93.78
65157;BME280;52745;49.794;18.258;2023-04-25T05:02:00;-16178.66;;;9.04;93.88
65157;BME280;52745;49.794;18.258;2023-04-25T05:05:02;-16177.97;;;9.01;93.81
65157;BME280;52745;49.794;18.258;2023-04-25T05:07:35;-16178.66;;;9.04;93.56
65157;BME280;52745;49.794;18.258;2023-04-25T05:10:07;-16178.38;;;9.03;92.69
65157;BME280;52745;49.794;18.258;2023-04-25T05:12:40;-16173.72;;;8.85;93.12
65157;BME280;52745;49.794;18.258;2023-04-25T05:15:31;-16174.00;;;8.86;93.99
65157;BME280;52745;49.794;18.258;2023-04-25T05:18:17;-16170.19;;;8.72;94.06
65157;BME280;52745;49.794;18.258;2023-04-25T05:20:56;-16171.13;;;8.76;95.22
65157;BME280;52745;49.794;18.258;2023-04-25T05:23:44;-16171.13;;;8.76;93.81
65157;BME280;52745;49.794;18.258;2023-04-25T05:26:28;-16170.88;;;8.75;92.88
65157;BME280;52745;49.794;18.258;2023-04-25T05:29:16;-16174.41;;;8.88;93.03
65157;BME280;52745;49.794;18.258;2023-04-25T05:32:00;-16175.78;;;8.93;91.56
65157;BME280;52745;49.794;18.258;2023-04-25T05:34:26;-16175.22;;;8.91;92.53
65157;BME280;52745;49.794;18.258;2023-04-25T05:37:02;-16178.09;;;9.02;92.52
65157;BME280;52745;49.794;18.258;2023-04-25T05:39:29;-16179.47;;;9.07;91.21
65157;BME280;52745;49.794;18.258;2023-04-25T05:42:16;-16179.75;;;9.08;91.57
65157;BME280;52745;49.794;18.258;2023-04-25T05:45:01;-16177.56;;;9.00;92.32
65157;BME280;52745;49.794;18.258;2023-04-25T05:47:42;-16176.75;;;8.97;92.50
65157;BME280;52745;49.794;18.258;2023-04-25T05:50:22;-16175.78;;;8.93;92.01
65157;BME280;52745;49.794;18.258;2023-04-25T05:52:52;-16175.66;;;8.93;91.11
65157;BME280;52745;49.794;18.258;2023-04-25T05:55:37;-16174.97;;;8.90;91.60
65157;BME280;52745;49.794;18.258;2023-04-25T05:58:25;-16173.47;;;8.84;90.74
65157;BME280;52745;49.794;18.258;2023-04-25T06:00:52;-16177.69;;;9.00;90.50
65157;BME280;52745;49.794;18.258;2023-04-25T06:03:18;-16177.00;;;8.98;90.49
65157;BME280;52745;49.794;18.258;2023-04-25T06:05:45;-16182.47;;;9.18;90.31
65157;BME280;52745;49.794;18.258;2023-04-25T06:08:12;-16188.19;;;9.40;88.62
65157;BME280;52745;49.794;18.258;2023-04-25T06:10:39;-16188.75;;;9.42;90.49
65157;BME280;52745;49.794;18.258;2023-04-25T06:13:06;-16190.09;;;9.47;88.61
65157;BME280;52745;49.794;18.258;2023-04-25T06:15:36;-16190.25;;;9.47;92.13
65157;BME280;52745;49.794;18.258;2023-04-25T06:18:03;-16196.09;;;9.69;95.71
65157;BME280;52745;49.794;18.258;2023-04-25T06:20:29;-16207.28;;;10.11;93.76
65157;BME280;52745;49.794;18.258;2023-04-25T06:22:58;-16206.47;;;10.08;90.61
65157;BME280;52745;49.794;18.258;2023-04-25T06:25:51;-16208.25;;;10.15;86.99
65157;BME280;52745;49.794;18.258;2023-04-25T06:28:18;-16211.13;;;10.26;85.99
65157;BME280;52745;49.794;18.258;2023-04-25T06:30:45;-16205.38;;;10.04;85.38
65157;BME280;52745;49.794;18.258;2023-04-25T06:33:16;-16207.03;;;10.10;84.63
65157;BME280;52745;49.794;18.258;2023-04-25T06:35:43;-16210.84;;;10.25;85.82
65157;BME280;52745;49.794;18.258;2023-04-25T06:38:12;-16212.88;;;10.32;86.07
65157;BME280;52745;49.794;18.258;2023-04-25T06:40:41;-16219.03;;;10.55;85.23
65157;BME280;52745;49.794;18.258;2023-04-25T06:43:10;-16216.56;;;10.46;81.78
65157;BME280;52745;49.794;18.258;2023-04-25T06:45:57;-16218.22;;;10.52;82.41
65157;BME280;52745;49.794;18.258;2023-04-25T06:48:27;-16217.53;;;10.50;81.91
65157;BME280;52745;49.794;18.258;2023-04-25T06:50:54;-16222.03;;;10.67;82.30
65157;BME280;52745;49.794;18.258;2023-04-25T06:53:21;-16223.38;;;10.72;81.84
65157;BME280;52745;49.794;18.258;2023-04-25T06:55:54;-16222.56;;;10.69;82.60
65157;BME280;52745;49.794;18.258;2023-04-25T06:58:22;-16224.06;;;10.74;83.88
65157;BME280;52745;49.794;18.258;2023-04-25T07:00:59;-16226.66;;;10.84;82.67
65157;BME280;52745;49.794;18.258;2023-04-25T07:03:26;-16221.63;;;10.65;82.79
65157;BME280;52745;49.794;18.258;2023-04-25T07:05:58;-16219.03;;;10.55;79.72
65157;BME280;52745;49.794;18.258;2023-04-25T07:08:25;-16223.66;;;10.73;80.14
65157;BME280;52745;49.794;18.258;2023-04-25T07:10:52;-16223.13;;;10.71;81.32
65157;BME280;52745;49.794;18.258;2023-04-25T07:13:18;-16220.13;;;10.60;82.42
65157;BME280;52745;49.794;18.258;2023-04-25T07:15:45;-16222.28;;;10.68;79.80
65157;BME280;52745;49.794;18.258;2023-04-25T07:18:14;-16228.03;;;10.89;78.37
65157;BME280;52745;49.794;18.258;2023-04-25T07:20:42;-16223.66;;;10.73;82.76
65157;BME280;52745;49.794;18.258;2023-04-25T07:23:08;-16215.34;;;10.42;75.74
65157;BME280;52745;49.794;18.258;2023-04-25T07:25:35;-16217.25;;;10.49;73.10
65157;BME280;52745;49.794;18.258;2023-04-25T07:28:02;-16212.34;;;10.30;74.52
65157;BME280;52745;49.794;18.258;2023-04-25T07:30:29;-16215.47;;;10.42;71.96
65157;BME280;52745;49.794;18.258;2023-04-25T07:32:55;-16213.31;;;10.34;71.27
65157;BME280;52745;49.794;18.258;2023-04-25T07:35:22;-16216.03;;;10.44;69.75
65157;BME280;52745;49.794;18.258;2023-04-25T07:37:49;-16215.63;;;10.43;70.53
65157;BME280;52745;49.794;18.258;2023-04-25T07:40:19;-16220.38;;;10.61;71.02
65157;BME280;52745;49.794;18.258;2023-04-25T07:42:50;-16219.56;;;10.57;68.83
65157;BME280;52745;49.794;18.258;2023-04-25T07:45:22;-16222.72;;;10.69;68.20
65157;BME280;52745;49.794;18.258;2023-04-25T07:47:49;-16227.34;;;10.87;66.52
65157;BME280;52745;49.794;18.258;2023-04-25T07:50:17;-16223.13;;;10.71;68.22
65157;BME280;52745;49.794;18.258;2023-04-25T07:52:44;-16226.25;;;10.83;68.23
65157;BME280;52745;49.794;18.258;2023-04-25T07:55:23;-16221.63;;;10.65;66.67
65157;BME280;52745;49.794;18.258;2023-04-25T07:58:11;-16221.06;;;10.63;68.00
65157;BME280;52745;49.794;18.258;2023-04-25T08:00:41;-16221.47;;;10.65;68.34
65157;BME280;52745;49.794;18.258;2023-04-25T08:03:29;-16225.56;;;10.80;67.58
65157;BME280;52745;49.794;18.258;2023-04-25T08:05:56;-16227.19;;;10.86;66.17
65157;BME280;52745;49.794;18.258;2023-04-25T08:08:25;-16229.53;;;10.95;65.99
65157;BME280;52745;49.794;18.258;2023-04-25T08:10:52;-16233.19;;;11.09;65.69
65157;BME280;52745;49.794;18.258;2023-04-25T08:13:18;-16231.97;;;11.04;65.45
65157;BME280;52745;49.794;18.258;2023-04-25T08:15:46;-16231.44;;;11.02;64.20
65157;BME280;52745;49.794;18.258;2023-04-25T08:18:13;-16231.84;;;11.04;65.09
65157;BME280;52745;49.794;18.258;2023-04-25T08:20:40;-16233.47;;;11.10;64.31
65157;BME280;52745;49.794;18.258;2023-04-25T08:23:09;-16237.84;;;11.26;63.51
65157;BME280;52745;49.794;18.258;2023-04-25T08:26:03;-16233.34;;;11.09;65.27
65157;BME280;52745;49.794;18.258;2023-04-25T08:28:32;-16236.34;;;11.21;63.89
65157;BME280;52745;49.794;18.258;2023-04-25T08:31:01;-16235.66;;;11.18;62.58
65157;BME280;52745;49.794;18.258;2023-04-25T08:33:34;-16234.03;;;11.12;62.07
65157;BME280;52745;49.794;18.258;2023-04-25T08:36:13;-16237.84;;;11.26;62.55
65157;BME280;52745;49.794;18.258;2023-04-25T08:38:41;-16233.47;;;11.10;62.37
65157;BME280;52745;49.794;18.258;2023-04-25T08:41:11;-16240.44;;;11.36;63.59
65157;BME280;52745;49.794;18.258;2023-04-25T08:43:42;-16249.16;;;11.69;63.30
65157;BME280;52745;49.794;18.258;2023-04-25T08:46:09;-16248.75;;;11.67;63.13
65157;BME280;52745;49.794;18.258;2023-04-25T08:48:45;-16243.00;;;11.46;60.89
65157;BME280;52745;49.794;18.258;2023-04-25T08:51:19;-16239.75;;;11.33;60.95
65157;BME280;52745;49.794;18.258;2023-04-25T08:53:49;-16243.16;;;11.46;61.75
65157;BME280;52745;49.794;18.258;2023-04-25T08:56:17;-16252.16;;;11.80;59.77
65157;BME280;52745;49.794;18.258;2023-04-25T08:58:44;-16248.06;;;11.65;60.02
65157;BME280;52745;49.794;18.258;2023-04-25T09:01:12;-16247.91;;;11.64;59.13
65157;BME280;52745;49.794;18.258;2023-04-25T09:03:47;-16249.97;;;11.72;57.98
65157;BME280;52745;49.794;18.258;2023-04-25T09:06:14;-16253.63;;;11.86;59.48
65157;BME280;52745;49.794;18.258;2023-04-25T09:08:42;-16243.56;;;11.48;58.64
65157;BME280;52745;49.794;18.258;2023-04-25T09:11:10;-16243.81;;;11.49;59.20
65157;BME280;52745;49.794;18.258;2023-04-25T09:13:36;-16238.50;;;11.29;62.54
65157;BME280;52745;49.794;18.258;2023-04-25T09:16:25;-16243.81;;;11.49;59.27
65157;BME280;52745;49.794;18.258;2023-04-25T09:19:36;-16239.19;;;11.31;59.17
65157;BME280;52745;49.794;18.258;2023-04-25T09:22:08;-16249.56;;;11.70;60.78
65157;BME280;52745;49.794;18.258;2023-04-25T09:24:38;-16261.28;;;12.14;61.08
65157;BME280;52745;49.794;18.258;2023-04-25T09:27:10;-16258.00;;;12.02;57.09
65157;BME280;52745;49.794;18.258;2023-04-25T09:29:39;-16258.97;;;12.06;58.26
65157;BME280;52745;49.794;18.258;2023-04-25T09:32:19;-16251.06;;;11.76;56.90
65157;BME280;52745;49.794;18.258;2023-04-25T09:34:50;-16250.22;;;11.73;60.46
65157;BME280;52745;49.794;18.258;2023-04-25T09:40:06;-16255.97;;;11.94;59.68
65157;BME280;52745;49.794;18.258;2023-04-25T09:42:50;-16260.47;;;12.11;59.85
65157;BME280;52745;49.794;18.258;2023-04-25T09:45:17;-16259.50;;;12.08;57.60
65157;BME280;52745;49.794;18.258;2023-04-25T09:47:45;-16261.00;;;12.13;57.35
65157;BME280;52745;49.794;18.258;2023-04-25T09:50:15;-16247.25;;;11.62;58.11
65157;BME280;52745;49.794;18.258;2023-04-25T09:52:44;-16241.09;;;11.38;59.59
65157;BME280;52745;49.794;18.258;2023-04-25T09:55:16;-16247.38;;;11.62;59.81
65157;BME280;52745;49.794;18.258;2023-04-25T09:57:48;-16243.56;;;11.48;59.21
65157;BME280;52745;49.794;18.258;2023-04-25T10:00:20;-16251.06;;;11.76;59.58
65157;BME280;52745;49.794;18.258;2023-04-25T10:02:48;-16249.16;;;11.69;59.15
65157;BME280;52745;49.794;18.258;2023-04-25T10:05:51;-16253.78;;;11.86;58.09
65157;BME280;52745;49.794;18.258;2023-04-25T10:08:19;-16264.41;;;12.26;58.86
65157;BME280;52745;49.794;18.258;2023-04-25T10:10:48;-16281.44;;;12.90;56.98
65157;BME280;52745;49.794;18.258;2023-04-25T10:13:17;-16303.75;;;13.74;52.20
65157;BME280;52745;49.794;18.258;2023-04-25T10:15:45;-16303.88;;;13.75;53.42
65157;BME280;52745;49.794;18.258;2023-04-25T10:18:13;-16293.00;;;13.34;55.67
65157;BME280;52745;49.794;18.258;2023-04-25T10:20:40;-16298.59;;;13.55;53.84
65157;BME280;52745;49.794;18.258;2023-04-25T10:23:12;-16287.97;;;13.15;53.76
65157;BME280;52745;49.794;18.258;2023-04-25T10:25:40;-16293.69;;;13.36;56.07
65157;BME280;52745;49.794;18.258;2023-04-25T10:28:07;-16306.88;;;13.86;56.01
65157;BME280;52745;49.794;18.258;2023-04-25T10:30:34;-16322.66;;;14.45;53.00
65157;BME280;52745;49.794;18.258;2023-04-25T10:33:01;-16321.72;;;14.42;52.16
65157;BME280;52745;49.794;18.258;2023-04-25T10:35:29;-16333.13;;;14.85;53.62
65157;BME280;52745;49.794;18.258;2023-04-25T10:38:08;-16327.69;;;14.64;50.33
65157;BME280;52745;49.794;18.258;2023-04-25T10:40:36;-16335.59;;;14.94;53.41
65157;BME280;52745;49.794;18.258;2023-04-25T10:45:59;-16315.88;;;14.20;51.76
65157;BME280;52745;49.794;18.258;2023-04-25T10:48:26;-16306.75;;;13.85;52.62
65157;BME280;52745;49.794;18.258;2023-04-25T10:51:16;-16309.19;;;13.95;53.49
65157;BME280;52745;49.794;18.258;2023-04-25T10:53:56;-16318.31;;;14.29;53.11
65157;BME280;52745;49.794;18.258;2023-04-25T10:56:25;-16324.97;;;14.54;53.34
65157;BME280;52745;49.794;18.258;2023-04-25T10:59:04;-16321.44;;;14.41;54.62
65157;BME280;52745;49.794;18.258;2023-04-25T11:01:39;-16321.44;;;14.41;52.01
65157;BME280;52745;49.794;18.258;2023-04-25T11:04:25;-16320.91;;;14.39;52.49
65157;BME280;52745;49.794;18.258;2023-04-25T11:09:40;-16318.84;;;14.31;52.68
65157;BME280;52745;49.794;18.258;2023-04-25T11:12:08;-16329.34;;;14.71;51.73
65157;BME280;52745;49.794;18.258;2023-04-25T11:14:35;-16340.63;;;15.13;49.79
65157;BME280;52745;49.794;18.258;2023-04-25T11:17:03;-16346.47;;;15.35;49.38
65157;BME280;52745;49.794;18.258;2023-04-25T11:19:30;-16364.69;;;16.04;49.03
65157;BME280;52745;49.794;18.258;2023-04-25T11:22:00;-16352.72;;;15.59;49.90
65157;BME280;52745;49.794;18.258;2023-04-25T11:24:29;-16351.63;;;15.55;49.63
65157;BME280;52745;49.794;18.258;2023-04-25T11:26:58;-16355.72;;;15.70;49.85
65157;BME280;52745;49.794;18.258;2023-04-25T11:29:30;-16345.91;;;15.33;49.43
65157;BME280;52745;49.794;18.258;2023-04-25T11:31:58;-16337.75;;;15.02;50.06
65157;BME280;52745;49.794;18.258;2023-04-25T11:34:27;-16327.44;;;14.63;50.83
65157;BME280;52745;49.794;18.258;2023-04-25T11:36:57;-16314.38;;;14.14;52.84
65157;BME280;52745;49.794;18.258;2023-04-25T11:39:24;-16314.91;;;14.16;54.24
65157;BME280;52745;49.794;18.258;2023-04-25T11:41:51;-16308.25;;;13.91;55.35
65157;BME280;52745;49.794;18.258;2023-04-25T11:44:19;-16303.47;;;13.73;53.69
65157;BME280;52745;49.794;18.258;2023-04-25T11:46:46;-16302.41;;;13.69;53.33
65157;BME280;52745;49.794;18.258;2023-04-25T11:49:14;-16311.91;;;14.05;52.69
65157;BME280;52745;49.794;18.258;2023-04-25T11:51:45;-16329.19;;;14.70;53.58
65157;BME280;52745;49.794;18.258;2023-04-25T11:54:13;-16343.75;;;15.25;51.71
65157;BME280;52745;49.794;18.258;2023-04-25T11:56:44;-16338.31;;;15.04;51.69
65157;BME280;52745;49.794;18.258;2023-04-25T11:59:12;-16338.72;;;15.06;50.34
65157;BME280;52745;49.794;18.258;2023-04-25T12:01:40;-16350.69;;;15.51;52.79
65157;BME280;52745;49.794;18.258;2023-04-25T12:04:15;-16357.88;;;15.78;52.04
65157;BME280;52745;49.794;18.258;2023-04-25T12:06:43;-16369.97;;;16.24;49.45
65157;BME280;52745;49.794;18.258;2023-04-25T12:09:15;-16373.50;;;16.37;49.37
65157;BME280;52745;49.794;18.258;2023-04-25T12:11:47;-16365.22;;;16.06;50.79
65157;BME280;52745;49.794;18.258;2023-04-25T12:14:31;-16351.34;;;15.53;51.59
65157;BME280;52745;49.794;18.258;2023-04-25T12:17:00;-16350.00;;;15.48;51.12
65157;BME280;52745;49.794;18.258;2023-04-25T12:19:35;-16341.03;;;15.15;51.91
65157;BME280;52745;49.794;18.258;2023-04-25T12:22:02;-16328.25;;;14.66;53.43
65157;BME280;52745;49.794;18.258;2023-04-25T12:24:33;-16326.88;;;14.61;55.85
65157;BME280;52745;49.794;18.258;2023-04-25T12:27:05;-16319.53;;;14.34;53.31
65157;BME280;52745;49.794;18.258;2023-04-25T12:29:33;-16309.47;;;13.96;56.64
65157;BME280;52745;49.794;18.258;2023-04-25T12:32:00;-16303.47;;;13.73;57.12
65157;BME280;52745;49.794;18.258;2023-04-25T12:34:32;-16296.94;;;13.49;57.70
65157;BME280;52745;49.794;18.258;2023-04-25T12:36:58;-16297.63;;;13.51;55.39
65157;BME280;52745;49.794;18.258;2023-04-25T12:39:25;-16292.88;;;13.33;57.52
65157;BME280;52745;49.794;18.258;2023-04-25T12:41:52;-16289.06;;;13.19;59.20
65157;BME280;52745;49.794;18.258;2023-04-25T12:44:21;-16284.16;;;13.00;59.96
65157;BME280;52745;49.794;18.258;2023-04-25T12:46:48;-16277.06;;;12.74;58.66
65157;BME280;52745;49.794;18.258;2023-04-25T12:49:17;-16278.97;;;12.81;60.58
65157;BME280;52745;49.794;18.258;2023-04-25T12:51:43;-16285.78;;;13.07;59.98
65157;BME280;52745;49.794;18.258;2023-04-25T12:54:10;-16289.31;;;13.20;58.60
65157;BME280;52745;49.794;18.258;2023-04-25T12:56:37;-16291.91;;;13.30;58.57
65157;BME280;52745;49.794;18.258;2023-04-25T12:59:04;-16300.50;;;13.62;57.44
65157;BME280;52745;49.794;18.258;2023-04-25T13:01:31;-16305.38;;;13.80;55.03
65157;BME280;52745;49.794;18.258;2023-04-25T13:03:58;-16306.34;;;13.84;56.60
65157;BME280;52745;49.794;18.258;2023-04-25T13:06:25;-16307.84;;;13.90;57.88
65157;BME280;52745;49.794;18.258;2023-04-25T13:08:52;-16304.44;;;13.77;56.85